sensor_id;sensor_type;location;lat;lon;timestamp;P1;durP1;ratioP1;P2;durP2;ratioP2
12896;SDS011;6516;35.028;32.372;2022-12-10T00:01:46;25.73;;;13.30;;
12896;SDS011;6516;35.028;32.372;2022-12-10T00:04:15;25.90;;;12.95;;
12896;SDS011;6516;35.028;32.372;2022-12-10T00:06:43;27.75;;;13.60;;
12896;SDS011;6516;35.028;32.372;2022-12-10T00:09:13;24.30;;;13.40;;
12896;SDS011;6516;35.028;32.372;2022-12-10T00:11:43;25.23;;;12.38;;
12896;SDS011;6516;35.028;32.372;2022-12-10T00:14:11;24.48;;;13.15;;
12896;SDS011;6516;35.028;32.372;2022-12-10T00:16:41;27.05;;;13.35;;
12896;SDS011;6516;35.028;32.372;2022-12-10T00:19:09;26.02;;;13.38;;
12896;SDS011;6516;35.028;32.372;2022-12-10T00:21:37;25.43;;;13.07;;
12896;SDS011;6516;35.028;32.372;2022-12-10T00:24:05;24.38;;;13.60;;
12896;SDS011;6516;35.028;32.372;2022-12-10T00:26:34;23.85;;;12.23;;
12896;SDS011;6516;35.028;32.372;2022-12-10T00:29:05;24.02;;;13.65;;
12896;SDS011;6516;35.028;32.372;2022-12-10T00:31:37;24.25;;;12.80;;
12896;SDS011;6516;35.028;32.372;2022-12-10T00:34:08;27.70;;;14.20;;
12896;SDS011;6516;35.028;32.372;2022-12-10T00:36:39;25.92;;;14.05;;
12896;SDS011;6516;35.028;32.372;2022-12-10T00:39:09;24.23;;;14.23;;
12896;SDS011;6516;35.028;32.372;2022-12-10T00:41:39;26.52;;;13.70;;
12896;SDS011;6516;35.028;32.372;2022-12-10T00:44:07;28.75;;;14.27;;
12896;SDS011;6516;35.028;32.372;2022-12-10T00:46:35;24.97;;;13.40;;
12896;SDS011;6516;35.028;32.372;2022-12-10T00:49:03;28.45;;;14.00;;
12896;SDS011;6516;35.028;32.372;2022-12-10T00:51:33;26.08;;;14.35;;
12896;SDS011;6516;35.028;32.372;2022-12-10T00:54:00;29.20;;;14.00;;
12896;SDS011;6516;35.028;32.372;2022-12-10T00:56:29;31.23;;;14.48;;
12896;SDS011;6516;35.028;32.372;2022-12-10T00:58:59;31.03;;;14.50;;
12896;SDS011;6516;35.028;32.372;2022-12-10T01:01:28;30.92;;;15.70;;
12896;SDS011;6516;35.028;32.372;2022-12-10T01:03:58;29.05;;;14.75;;
12896;SDS011;6516;35.028;32.372;2022-12-10T01:06:29;30.90;;;14.73;;
12896;SDS011;6516;35.028;32.372;2022-12-10T01:09:01;32.25;;;15.50;;
12896;SDS011;6516;35.028;32.372;2022-12-10T01:11:33;30.40;;;15.40;;
12896;SDS011;6516;35.028;32.372;2022-12-10T01:14:04;29.52;;;15.15;;
12896;SDS011;6516;35.028;32.372;2022-12-10T01:16:33;31.15;;;15.20;;
12896;SDS011;6516;35.028;32.372;2022-12-10T01:19:02;35.90;;;16.20;;
12896;SDS011;6516;35.028;32.372;2022-12-10T01:21:33;33.50;;;17.05;;
12896;SDS011;6516;35.028;32.372;2022-12-10T01:24:01;34.20;;;16.43;;
12896;SDS011;6516;35.028;32.372;2022-12-10T01:26:31;32.72;;;17.00;;
12896;SDS011;6516;35.028;32.372;2022-12-10T01:29:02;34.60;;;16.33;;
12896;SDS011;6516;35.028;32.372;2022-12-10T01:31:32;28.77;;;15.10;;
12896;SDS011;6516;35.028;32.372;2022-12-10T01:34:02;33.10;;;16.15;;
12896;SDS011;6516;35.028;32.372;2022-12-10T01:36:34;32.63;;;16.57;;
12896;SDS011;6516;35.028;32.372;2022-12-10T01:39:05;32.85;;;16.33;;
12896;SDS011;6516;35.028;32.372;2022-12-10T01:41:35;29.13;;;15.95;;
12896;SDS011;6516;35.028;32.372;2022-12-10T01:47:36;29.70;;;15.30;;
12896;SDS011;6516;35.028;32.372;2022-12-10T01:50:05;28.97;;;14.90;;
12896;SDS011;6516;35.028;32.372;2022-12-10T01:52:35;29.52;;;15.07;;
12896;SDS011;6516;35.028;32.372;2022-12-10T01:55:06;31.35;;;16.38;;
12896;SDS011;6516;35.028;32.372;2022-12-10T01:58:07;31.02;;;15.20;;
12896;SDS011;6516;35.028;32.372;2022-12-10T02:00:37;30.65;;;15.35;;
12896;SDS011;6516;35.028;32.372;2022-12-10T02:03:16;32.40;;;15.77;;
12896;SDS011;6516;35.028;32.372;2022-12-10T02:05:52;29.77;;;15.65;;
12896;SDS011;6516;35.028;32.372;2022-12-10T02:08:29;32.50;;;16.67;;
12896;SDS011;6516;35.028;32.372;2022-12-10T02:11:11;30.65;;;15.02;;
12896;SDS011;6516;35.028;32.372;2022-12-10T02:13:48;27.35;;;15.20;;
12896;SDS011;6516;35.028;32.372;2022-12-10T02:16:25;31.73;;;16.13;;
12896;SDS011;6516;35.028;32.372;2022-12-10T02:19:03;31.35;;;15.45;;
12896;SDS011;6516;35.028;32.372;2022-12-10T02:21:45;30.58;;;15.90;;
12896;SDS011;6516;35.028;32.372;2022-12-10T02:24:18;30.42;;;14.65;;
12896;SDS011;6516;35.028;32.372;2022-12-10T02:26:55;31.83;;;15.25;;
12896;SDS011;6516;35.028;32.372;2022-12-10T02:29:32;32.50;;;15.60;;
12896;SDS011;6516;35.028;32.372;2022-12-10T02:32:03;30.17;;;16.08;;
12896;SDS011;6516;35.028;32.372;2022-12-10T02:34:37;36.42;;;17.45;;
12896;SDS011;6516;35.028;32.372;2022-12-10T02:37:10;29.40;;;15.20;;
12896;SDS011;6516;35.028;32.372;2022-12-10T02:39:45;29.42;;;14.90;;
12896;SDS011;6516;35.028;32.372;2022-12-10T02:42:18;29.43;;;14.43;;
12896;SDS011;6516;35.028;32.372;2022-12-10T02:44:50;25.55;;;13.20;;
12896;SDS011;6516;35.028;32.372;2022-12-10T02:47:20;28.30;;;14.00;;
12896;SDS011;6516;35.028;32.372;2022-12-10T02:49:50;25.80;;;13.75;;
12896;SDS011;6516;35.028;32.372;2022-12-10T02:52:22;28.05;;;13.68;;
12896;SDS011;6516;35.028;32.372;2022-12-10T02:54:51;25.23;;;13.47;;
12896;SDS011;6516;35.028;32.372;2022-12-10T02:57:30;25.27;;;13.43;;
12896;SDS011;6516;35.028;32.372;2022-12-10T03:00:07;25.00;;;13.73;;
12896;SDS011;6516;35.028;32.372;2022-12-10T03:02:51;25.08;;;13.30;;
12896;SDS011;6516;35.028;32.372;2022-12-10T03:05:36;24.52;;;13.05;;
12896;SDS011;6516;35.028;32.372;2022-12-10T03:08:13;26.10;;;13.33;;
12896;SDS011;6516;35.028;32.372;2022-12-10T03:10:45;23.67;;;12.93;;
12896;SDS011;6516;35.028;32.372;2022-12-10T03:13:21;26.00;;;13.35;;
12896;SDS011;6516;35.028;32.372;2022-12-10T03:15:56;26.90;;;13.20;;
12896;SDS011;6516;35.028;32.372;2022-12-10T03:18:25;23.58;;;12.48;;
12896;SDS011;6516;35.028;32.372;2022-12-10T03:20:56;22.37;;;11.80;;
12896;SDS011;6516;35.028;32.372;2022-12-10T03:23:30;24.95;;;12.10;;
12896;SDS011;6516;35.028;32.372;2022-12-10T03:26:01;21.70;;;12.40;;
12896;SDS011;6516;35.028;32.372;2022-12-10T03:28:31;25.92;;;13.20;;
12896;SDS011;6516;35.028;32.372;2022-12-10T03:31:07;25.02;;;12.95;;
12896;SDS011;6516;35.028;32.372;2022-12-10T03:33:39;24.07;;;13.13;;
12896;SDS011;6516;35.028;32.372;2022-12-10T03:36:08;23.58;;;12.60;;
12896;SDS011;6516;35.028;32.372;2022-12-10T03:38:38;22.77;;;12.35;;
12896;SDS011;6516;35.028;32.372;2022-12-10T03:41:07;25.73;;;13.90;;
12896;SDS011;6516;35.028;32.372;2022-12-10T03:43:35;29.05;;;13.98;;
12896;SDS011;6516;35.028;32.372;2022-12-10T03:46:18;26.60;;;13.40;;
12896;SDS011;6516;35.028;32.372;2022-12-10T03:48:46;28.23;;;14.82;;
12896;SDS011;6516;35.028;32.372;2022-12-10T03:51:14;27.63;;;13.73;;
12896;SDS011;6516;35.028;32.372;2022-12-10T03:53:42;24.58;;;13.10;;
12896;SDS011;6516;35.028;32.372;2022-12-10T03:56:10;27.67;;;14.98;;
12896;SDS011;6516;35.028;32.372;2022-12-10T03:58:38;27.00;;;14.40;;
12896;SDS011;6516;35.028;32.372;2022-12-10T04:01:06;29.42;;;14.23;;
12896;SDS011;6516;35.028;32.372;2022-12-10T04:03:36;28.42;;;14.20;;
12896;SDS011;6516;35.028;32.372;2022-12-10T04:06:06;27.90;;;15.05;;
12896;SDS011;6516;35.028;32.372;2022-12-10T04:08:37;36.88;;;16.58;;
12896;SDS011;6516;35.028;32.372;2022-12-10T04:11:06;31.90;;;16.37;;
12896;SDS011;6516;35.028;32.372;2022-12-10T04:13:36;40.00;;;17.30;;
12896;SDS011;6516;35.028;32.372;2022-12-10T04:16:22;33.67;;;16.15;;
12896;SDS011;6516;35.028;32.372;2022-12-10T04:18:56;33.08;;;16.73;;
12896;SDS011;6516;35.028;32.372;2022-12-10T04:21:26;30.67;;;16.25;;
12896;SDS011;6516;35.028;32.372;2022-12-10T04:24:13;30.40;;;15.13;;
12896;SDS011;6516;35.028;32.372;2022-12-10T04:27:01;30.55;;;16.02;;
12896;SDS011;6516;35.028;32.372;2022-12-10T04:29:32;30.92;;;15.88;;
12896;SDS011;6516;35.028;32.372;2022-12-10T04:32:00;32.20;;;15.88;;
12896;SDS011;6516;35.028;32.372;2022-12-10T04:34:29;29.75;;;16.08;;
12896;SDS011;6516;35.028;32.372;2022-12-10T04:36:58;32.70;;;15.17;;
12896;SDS011;6516;35.028;32.372;2022-12-10T04:39:27;28.42;;;14.48;;
12896;SDS011;6516;35.028;32.372;2022-12-10T04:41:55;30.75;;;15.05;;
12896;SDS011;6516;35.028;32.372;2022-12-10T04:44:23;32.15;;;15.95;;
12896;SDS011;6516;35.028;32.372;2022-12-10T04:46:51;33.60;;;16.77;;
12896;SDS011;6516;35.028;32.372;2022-12-10T04:49:19;32.57;;;16.47;;
12896;SDS011;6516;35.028;32.372;2022-12-10T04:51:49;28.50;;;15.90;;
12896;SDS011;6516;35.028;32.372;2022-12-10T04:54:18;32.47;;;15.88;;
12896;SDS011;6516;35.028;32.372;2022-12-10T04:56:46;34.17;;;16.35;;
12896;SDS011;6516;35.028;32.372;2022-12-10T04:59:15;31.70;;;16.25;;
12896;SDS011;6516;35.028;32.372;2022-12-10T05:01:43;32.57;;;16.70;;
12896;SDS011;6516;35.028;32.372;2022-12-10T05:04:12;33.75;;;16.92;;
12896;SDS011;6516;35.028;32.372;2022-12-10T05:06:43;31.85;;;16.60;;
12896;SDS011;6516;35.028;32.372;2022-12-10T05:09:13;32.67;;;16.00;;
12896;SDS011;6516;35.028;32.372;2022-12-10T05:11:41;34.22;;;16.48;;
12896;SDS011;6516;35.028;32.372;2022-12-10T05:14:10;34.57;;;17.27;;
12896;SDS011;6516;35.028;32.372;2022-12-10T05:16:38;31.88;;;16.92;;
12896;SDS011;6516;35.028;32.372;2022-12-10T05:19:07;34.30;;;16.92;;
12896;SDS011;6516;35.028;32.372;2022-12-10T05:21:37;32.85;;;16.02;;
12896;SDS011;6516;35.028;32.372;2022-12-10T05:24:24;33.45;;;16.85;;
12896;SDS011;6516;35.028;32.372;2022-12-10T05:26:52;30.60;;;16.07;;
12896;SDS011;6516;35.028;32.372;2022-12-10T05:29:20;32.60;;;16.25;;
12896;SDS011;6516;35.028;32.372;2022-12-10T05:31:48;33.85;;;15.82;;
12896;SDS011;6516;35.028;32.372;2022-12-10T05:34:16;30.63;;;16.15;;
12896;SDS011;6516;35.028;32.372;2022-12-10T05:36:43;30.48;;;15.98;;
12896;SDS011;6516;35.028;32.372;2022-12-10T05:39:11;29.00;;;15.00;;
12896;SDS011;6516;35.028;32.372;2022-12-10T05:41:41;29.88;;;14.85;;
12896;SDS011;6516;35.028;32.372;2022-12-10T05:44:10;31.20;;;15.43;;
12896;SDS011;6516;35.028;32.372;2022-12-10T05:46:39;31.83;;;15.95;;
12896;SDS011;6516;35.028;32.372;2022-12-10T05:49:07;29.60;;;15.27;;
12896;SDS011;6516;35.028;32.372;2022-12-10T05:51:35;28.60;;;14.73;;
12896;SDS011;6516;35.028;32.372;2022-12-10T05:54:04;31.92;;;15.93;;
12896;SDS011;6516;35.028;32.372;2022-12-10T05:56:34;29.92;;;15.02;;
12896;SDS011;6516;35.028;32.372;2022-12-10T05:59:05;30.52;;;15.45;;
12896;SDS011;6516;35.028;32.372;2022-12-10T06:01:34;25.23;;;14.20;;
12896;SDS011;6516;35.028;32.372;2022-12-10T06:04:02;24.27;;;13.83;;
12896;SDS011;6516;35.028;32.372;2022-12-10T06:06:33;23.88;;;13.10;;
12896;SDS011;6516;35.028;32.372;2022-12-10T06:09:03;22.25;;;12.48;;
12896;SDS011;6516;35.028;32.372;2022-12-10T06:11:32;23.67;;;12.48;;
12896;SDS011;6516;35.028;32.372;2022-12-10T06:14:00;20.00;;;12.38;;
12896;SDS011;6516;35.028;32.372;2022-12-10T06:16:30;21.23;;;11.37;;
12896;SDS011;6516;35.028;32.372;2022-12-10T06:18:57;17.10;;;10.40;;
12896;SDS011;6516;35.028;32.372;2022-12-10T06:21:25;19.23;;;11.00;;
12896;SDS011;6516;35.028;32.372;2022-12-10T06:23:53;18.33;;;10.55;;
12896;SDS011;6516;35.028;32.372;2022-12-10T06:26:22;16.38;;;9.95;;
12896;SDS011;6516;35.028;32.372;2022-12-10T06:28:51;17.43;;;9.97;;
12896;SDS011;6516;35.028;32.372;2022-12-10T06:31:21;16.08;;;9.48;;
12896;SDS011;6516;35.028;32.372;2022-12-10T06:33:51;17.05;;;9.95;;
12896;SDS011;6516;35.028;32.372;2022-12-10T06:36:19;16.65;;;9.98;;
12896;SDS011;6516;35.028;32.372;2022-12-10T06:38:47;18.02;;;11.00;;
12896;SDS011;6516;35.028;32.372;2022-12-10T06:41:16;14.57;;;9.37;;
12896;SDS011;6516;35.028;32.372;2022-12-10T06:43:46;16.52;;;9.75;;
12896;SDS011;6516;35.028;32.372;2022-12-10T06:46:14;16.15;;;9.18;;
12896;SDS011;6516;35.028;32.372;2022-12-10T06:48:45;15.32;;;9.00;;
12896;SDS011;6516;35.028;32.372;2022-12-10T06:51:14;16.08;;;9.57;;
12896;SDS011;6516;35.028;32.372;2022-12-10T06:53:44;14.37;;;8.83;;
12896;SDS011;6516;35.028;32.372;2022-12-10T06:56:14;14.75;;;9.40;;
12896;SDS011;6516;35.028;32.372;2022-12-10T07:01:55;14.27;;;8.38;;
12896;SDS011;6516;35.028;32.372;2022-12-10T07:04:23;14.98;;;8.63;;
12896;SDS011;6516;35.028;32.372;2022-12-10T07:06:52;15.50;;;8.90;;
12896;SDS011;6516;35.028;32.372;2022-12-10T07:09:20;17.52;;;9.40;;
12896;SDS011;6516;35.028;32.372;2022-12-10T07:11:48;13.98;;;8.73;;
12896;SDS011;6516;35.028;32.372;2022-12-10T07:14:15;15.43;;;8.82;;
12896;SDS011;6516;35.028;32.372;2022-12-10T07:16:45;14.25;;;8.88;;
12896;SDS011;6516;35.028;32.372;2022-12-10T07:19:13;13.77;;;8.20;;
12896;SDS011;6516;35.028;32.372;2022-12-10T07:21:41;14.85;;;8.32;;
12896;SDS011;6516;35.028;32.372;2022-12-10T07:24:13;14.27;;;8.32;;
12896;SDS011;6516;35.028;32.372;2022-12-10T07:26:43;14.40;;;8.70;;
12896;SDS011;6516;35.028;32.372;2022-12-10T07:29:13;15.63;;;8.45;;
12896;SDS011;6516;35.028;32.372;2022-12-10T07:31:43;13.67;;;8.57;;
12896;SDS011;6516;35.028;32.372;2022-12-10T07:34:12;14.52;;;8.02;;
12896;SDS011;6516;35.028;32.372;2022-12-10T07:36:40;14.93;;;9.10;;
12896;SDS011;6516;35.028;32.372;2022-12-10T07:39:08;14.20;;;8.63;;
